Time;durP1;ratioP1;P1;durP2;ratioP2;P2;SDS_P1;SDS_P2;PMS_P1;PMS_P2;Temp;Humidity;BMP_temperature;BMP_pressure;BME280_temperature;BME280_humidity;BME280_pressure;Samples;Min_cycle;Max_cycle;Signal;HPM_P1;HPM_P2
2022/04/10 00:01:44;;;;;;;5.75;2.88;;;;;;;;;;5038825;28;20209;-83
2022/04/10 00:04:12;;;;;;;4.90;2.97;;;;;;;;;;5038930;28;20229;-83
2022/04/10 00:06:39;;;;;;;3.60;2.30;;;;;;;;;;5039027;28;20721;-85
2022/04/10 00:09:08;;;;;;;8.23;5.10;;;;;;;;;;5038949;28;20698;-83
2022/04/10 00:11:35;;;;;;;7.28;3.67;;;;;;;;;;5038749;28;20264;-83
2022/04/10 00:14:02;;;;;;;3.55;2.40;;;;;;;;;;5037276;28;20257;-82
2022/04/10 00:16:30;;;;;;;4.93;2.80;;;;;;;;;;5038585;28;20267;-84
2022/04/10 00:19:01;;;;;;;2.42;1.60;;;;;;;;;;5037794;28;20206;-83
2022/04/10 00:21:29;;;;;;;2.88;1.88;;;;;;;;;;5038525;28;20221;-83
2022/04/10 00:23:56;;;;;;;4.20;1.92;;;;;;;;;;5038291;28;20213;-84
2022/04/10 00:26:25;;;;;;;3.05;1.80;;;;;;;;;;5039452;28;20229;-84
2022/04/10 00:28:53;;;;;;;3.53;2.22;;;;;;;;;;5041348;28;20296;-84
2022/04/10 00:31:20;;;;;;;1.50;1.30;;;;;;;;;;5038655;28;20202;-84
2022/04/10 00:33:47;;;;;;;3.17;1.50;;;;;;;;;;5037242;28;20249;-83
2022/04/10 00:36:15;;;;;;;3.15;1.77;;;;;;;;;;5037631;28;20230;-84
2022/04/10 00:38:42;;;;;;;1.50;1.40;;;;;;;;;;5037913;28;20202;-84
2022/04/10 00:41:10;;;;;;;3.58;1.95;;;;;;;;;;5037901;28;20199;-84
2022/04/10 00:43:40;;;;;;;2.15;2.03;;;;;;;;;;5038324;28;20208;-84
2022/04/10 00:46:07;;;;;;;2.30;1.63;;;;;;;;;;5037893;28;20233;-84
2022/04/10 00:48:35;;;;;;;2.30;2.10;;;;;;;;;;5037852;28;20226;-83
2022/04/10 00:53:47;;;;;;;2.38;1.60;;;;;;;;;;5037850;28;20206;-84
2022/04/10 00:56:15;;;;;;;2.35;1.95;;;;;;;;;;5038700;28;20261;-84
2022/04/10 00:58:43;;;;;;;2.63;1.65;;;;;;;;;;5040680;28;20203;-84
2022/04/10 01:01:11;;;;;;;2.85;2.00;;;;;;;;;;5039915;28;20260;-84
2022/04/10 01:03:38;;;;;;;3.92;2.10;;;;;;;;;;5040336;28;20194;-84
2022/04/10 01:06:05;;;;;;;3.45;1.90;;;;;;;;;;5039152;28;20222;-83
2022/04/10 01:08:33;;;;;;;3.92;2.00;;;;;;;;;;5040325;28;20267;-84
2022/04/10 01:11:00;;;;;;;4.20;1.83;;;;;;;;;;5038752;28;20202;-84
2022/04/10 01:13:27;;;;;;;1.80;1.42;;;;;;;;;;5038332;28;20199;-84
2022/04/10 01:15:57;;;;;;;2.60;2.13;;;;;;;;;;5040580;28;20226;-84
2022/04/10 01:18:25;;;;;;;4.45;2.53;;;;;;;;;;5039828;28;20698;-84
2022/04/10 01:20:52;;;;;;;3.03;2.08;;;;;;;;;;5039969;28;20209;-84
2022/04/10 01:23:21;;;;;;;7.60;2.25;;;;;;;;;;5039009;28;20206;-83
2022/04/10 01:25:48;;;;;;;2.83;1.83;;;;;;;;;;5039189;28;20775;-84
2022/04/10 01:28:16;;;;;;;2.85;1.75;;;;;;;;;;5039225;28;20226;-82
2022/04/10 01:30:44;;;;;;;3.05;2.05;;;;;;;;;;5038988;28;20206;-84
2022/04/10 01:33:11;;;;;;;3.22;2.85;;;;;;;;;;5038072;28;20241;-84
2022/04/10 01:35:39;;;;;;;2.67;2.08;;;;;;;;;;5038391;28;20210;-84
2022/04/10 01:38:07;;;;;;;7.25;2.72;;;;;;;;;;5040082;28;20237;-84
2022/04/10 01:40:36;;;;;;;3.65;2.50;;;;;;;;;;5039427;28;20198;-84
2022/04/10 01:43:04;;;;;;;3.85;3.03;;;;;;;;;;5039448;28;20202;-84
2022/04/10 01:45:31;;;;;;;4.35;2.92;;;;;;;;;;5038245;28;20214;-84
2022/04/10 01:47:59;;;;;;;4.10;2.03;;;;;;;;;;5037855;28;20194;-82
2022/04/10 01:50:26;;;;;;;3.33;2.03;;;;;;;;;;5038404;28;20267;-84
2022/04/10 01:52:53;;;;;;;10.20;2.35;;;;;;;;;;5037730;28;20253;-84
2022/04/10 01:55:21;;;;;;;4.25;2.42;;;;;;;;;;5037716;28;20579;-83
2022/04/10 01:57:49;;;;;;;2.65;2.30;;;;;;;;;;5037405;28;20202;-84
2022/04/10 02:00:17;;;;;;;3.17;2.00;;;;;;;;;;5039337;28;20202;-83
2022/04/10 02:02:44;;;;;;;2.75;1.95;;;;;;;;;;5038121;28;20198;-83
2022/04/10 02:05:12;;;;;;;3.28;2.42;;;;;;;;;;5037752;28;20230;-85
2022/04/10 02:07:39;;;;;;;3.67;2.17;;;;;;;;;;5038223;28;20253;-83
2022/04/10 02:10:07;;;;;;;3.22;2.80;;;;;;;;;;5038320;28;20218;-84
2022/04/10 02:12:34;;;;;;;1.70;1.60;;;;;;;;;;5037363;28;20209;-83
2022/04/10 02:15:03;;;;;;;3.58;2.28;;;;;;;;;;5037405;28;20234;-84
2022/04/10 02:17:30;;;;;;;2.75;2.20;;;;;;;;;;5037099;28;20206;-84
2022/04/10 02:19:57;;;;;;;2.30;1.77;;;;;;;;;;5035313;28;20203;-84
2022/04/10 02:22:25;;;;;;;2.45;2.25;;;;;;;;;;5038078;28;20212;-84
2022/04/10 02:24:53;;;;;;;3.25;1.98;;;;;;;;;;5036425;28;20229;-83
2022/04/10 02:27:21;;;;;;;5.43;2.83;;;;;;;;;;5035857;28;20202;-85
2022/04/10 02:29:48;;;;;;;6.45;2.10;;;;;;;;;;5034630;28;20313;-83
2022/04/10 02:32:17;;;;;;;2.03;1.75;;;;;;;;;;5034545;28;20225;-84
2022/04/10 02:34:44;;;;;;;3.03;2.42;;;;;;;;;;5033805;28;20714;-83
2022/04/10 02:37:11;;;;;;;7.10;2.58;;;;;;;;;;5034068;28;20210;-84
2022/04/10 02:39:38;;;;;;;3.30;1.80;;;;;;;;;;5034123;28;20195;-84
2022/04/10 02:42:07;;;;;;;4.75;2.50;;;;;;;;;;5034203;28;20264;-83
2022/04/10 02:44:34;;;;;;;4.75;2.78;;;;;;;;;;5033628;28;20225;-84
2022/04/10 02:47:02;;;;;;;5.13;3.05;;;;;;;;;;5033767;28;20629;-82
2022/04/10 02:49:30;;;;;;;5.47;2.78;;;;;;;;;;5034218;28;20272;-84
2022/04/10 02:51:57;;;;;;;2.60;2.03;;;;;;;;;;5036963;28;20203;-84
2022/04/10 02:54:25;;;;;;;3.80;2.30;;;;;;;;;;5038186;28;20226;-84
2022/04/10 02:56:52;;;;;;;3.05;2.25;;;;;;;;;;5037798;28;20598;-83
2022/04/10 02:59:20;;;;;;;2.90;2.42;;;;;;;;;;5038664;28;20194;-84
2022/04/10 03:01:50;;;;;;;2.42;2.22;;;;;;;;;;5038907;28;20201;-84
2022/04/10 03:04:17;;;;;;;2.55;1.73;;;;;;;;;;5038871;28;20213;-84
2022/04/10 03:06:46;;;;;;;4.40;2.85;;;;;;;;;;5037860;28;20233;-83
2022/04/10 03:09:13;;;;;;;2.10;1.70;;;;;;;;;;5038718;28;20279;-84
2022/04/10 03:11:40;;;;;;;3.42;3.13;;;;;;;;;;5038643;28;20202;-83
2022/04/10 03:14:08;;;;;;;4.07;1.75;;;;;;;;;;5037785;28;20202;-84
2022/04/10 03:16:36;;;;;;;3.45;2.13;;;;;;;;;;5038110;28;20203;-84
2022/04/10 03:19:04;;;;;;;2.35;2.05;;;;;;;;;;5037701;28;20198;-84
2022/04/10 03:21:31;;;;;;;2.60;1.92;;;;;;;;;;5038472;28;20230;-84
2022/04/10 03:24:01;;;;;;;3.42;2.00;;;;;;;;;;5037871;28;20202;-83
2022/04/10 03:26:28;;;;;;;1.80;1.70;;;;;;;;;;5038435;28;20264;-83
2022/04/10 03:28:56;;;;;;;4.32;2.72;;;;;;;;;;5037894;28;20283;-84
2022/04/10 03:31:23;;;;;;;3.63;2.25;;;;;;;;;;5037310;28;20205;-84
2022/04/10 03:33:51;;;;;;;1.60;1.50;;;;;;;;;;5036448;28;20218;-83
2022/04/10 03:36:18;;;;;;;2.78;1.92;;;;;;;;;;5036916;28;20620;-84
2022/04/10 03:38:46;;;;;;;4.35;2.30;;;;;;;;;;5037517;28;20233;-84
2022/04/10 03:41:14;;;;;;;2.35;1.92;;;;;;;;;;5037142;28;20198;-84
2022/04/10 03:43:42;;;;;;;2.17;2.03;;;;;;;;;;5037136;28;20670;-83
2022/04/10 03:46:09;;;;;;;4.18;2.55;;;;;;;;;;5037016;28;20280;-83
2022/04/10 03:48:36;;;;;;;3.83;2.25;;;;;;;;;;5036652;28;20213;-84
2022/04/10 03:51:04;;;;;;;3.85;1.80;;;;;;;;;;5037759;28;20222;-84
2022/04/10 03:53:31;;;;;;;5.65;2.85;;;;;;;;;;5037128;28;20209;-83
2022/04/10 03:55:58;;;;;;;6.47;2.80;;;;;;;;;;5037227;28;20230;-84
2022/04/10 03:58:27;;;;;;;2.47;1.80;;;;;;;;;;5037192;28;20579;-84
2022/04/10 04:00:54;;;;;;;2.17;1.98;;;;;;;;;;5037201;28;20199;-84
2022/04/10 04:03:21;;;;;;;4.05;2.33;;;;;;;;;;5036673;28;20211;-83
2022/04/10 04:05:49;;;;;;;4.47;2.00;;;;;;;;;;5036606;28;20230;-83
2022/04/10 04:08:16;;;;;;;4.55;2.63;;;;;;;;;;5037447;28;20202;-84
2022/04/10 04:10:43;;;;;;;4.35;2.97;;;;;;;;;;5038206;28;20621;-83
2022/04/10 04:13:10;;;;;;;4.10;2.20;;;;;;;;;;5037774;28;20681;-84
2022/04/10 04:15:39;;;;;;;2.33;2.10;;;;;;;;;;5038691;28;20309;-83
2022/04/10 04:18:07;;;;;;;4.25;2.10;;;;;;;;;;5037278;28;20225;-83
2022/04/10 04:20:34;;;;;;;2.85;2.20;;;;;;;;;;5037907;28;20201;-83
2022/04/10 04:23:01;;;;;;;3.38;2.60;;;;;;;;;;5037647;28;20202;-84
2022/04/10 04:25:29;;;;;;;2.60;2.28;;;;;;;;;;5037265;28;20233;-84
2022/04/10 04:27:56;;;;;;;4.45;2.38;;;;;;;;;;5036829;28;20659;-84
2022/04/10 04:30:23;;;;;;;3.63;2.17;;;;;;;;;;5035514;28;20222;-84
2022/04/10 04:32:52;;;;;;;2.45;1.95;;;;;;;;;;5036939;28;20265;-84
2022/04/10 04:35:19;;;;;;;2.63;1.90;;;;;;;;;;5028952;28;20225;-84
2022/04/10 04:37:46;;;;;;;5.45;2.90;;;;;;;;;;5038100;28;20206;-84
2022/04/10 04:40:15;;;;;;;4.82;2.50;;;;;;;;;;5037573;28;20206;-83
2022/04/10 04:42:42;;;;;;;3.88;2.03;;;;;;;;;;5037589;28;20292;-83
2022/04/10 04:45:10;;;;;;;2.22;1.67;;;;;;;;;;5037879;28;20877;-84
2022/04/10 04:47:38;;;;;;;2.90;2.60;;;;;;;;;;5036620;28;20751;-84
2022/04/10 04:50:08;;;;;;;2.95;2.53;;;;;;;;;;5036144;28;20650;-84
2022/04/10 04:52:35;;;;;;;6.03;2.88;;;;;;;;;;5035600;28;20210;-84
2022/04/10 04:55:03;;;;;;;2.67;2.38;;;;;;;;;;5036343;28;20226;-84
2022/04/10 04:57:30;;;;;;;4.13;2.20;;;;;;;;;;5035823;28;20210;-84
2022/04/10 04:59:57;;;;;;;5.15;3.05;;;;;;;;;;5035941;28;20252;-84
2022/04/10 05:02:25;;;;;;;3.35;1.98;;;;;;;;;;5036788;28;20213;-84
2022/04/10 05:04:52;;;;;;;2.95;2.25;;;;;;;;;;5037149;28;20227;-83
2022/04/10 05:07:21;;;;;;;3.33;1.90;;;;;;;;;;5035123;28;20241;-83
2022/04/10 05:09:48;;;;;;;8.82;3.03;;;;;;;;;;5034764;28;20670;-84
2022/04/10 05:12:15;;;;;;;3.10;2.40;;;;;;;;;;5036207;28;20249;-83
2022/04/10 05:14:43;;;;;;;2.75;2.55;;;;;;;;;;5035554;28;20730;-84
2022/04/10 05:17:10;;;;;;;2.83;2.22;;;;;;;;;;5036042;28;20701;-84
2022/04/10 05:19:37;;;;;;;6.32;2.45;;;;;;;;;;5036507;28;20206;-84
2022/04/10 05:22:05;;;;;;;2.13;1.85;;;;;;;;;;5036075;28;20272;-84
2022/04/10 05:24:34;;;;;;;4.93;2.67;;;;;;;;;;5035680;28;20710;-85
2022/04/10 05:27:01;;;;;;;5.22;2.78;;;;;;;;;;5037287;28;20622;-84
2022/04/10 05:29:28;;;;;;;3.33;2.55;;;;;;;;;;5036338;28;20206;-84
2022/04/10 05:31:56;;;;;;;2.53;2.00;;;;;;;;;;5036827;28;20230;-84
2022/04/10 05:34:23;;;;;;;4.32;2.88;;;;;;;;;;5038678;28;20261;-84
2022/04/10 05:36:50;;;;;;;4.03;3.03;;;;;;;;;;5039838;28;20283;-84
2022/04/10 05:39:17;;;;;;;6.95;2.97;;;;;;;;;;5039506;28;20201;-84
2022/04/10 05:41:46;;;;;;;5.38;2.38;;;;;;;;;;5038084;28;20627;-84
2022/04/10 05:44:13;;;;;;;2.95;2.33;;;;;;;;;;5037606;28;20204;-83
2022/04/10 05:46:40;;;;;;;3.00;2.00;;;;;;;;;;5037671;28;20572;-78
2022/04/10 05:49:08;;;;;;;4.95;2.35;;;;;;;;;;5034552;28;20209;-78
2022/04/10 05:51:35;;;;;;;3.55;2.88;;;;;;;;;;5034448;28;20222;-77
2022/04/10 05:54:02;;;;;;;4.15;2.80;;;;;;;;;;5035040;28;20205;-78
2022/04/10 05:56:29;;;;;;;3.63;3.20;;;;;;;;;;5034943;28;20226;-80
2022/04/10 05:58:58;;;;;;;7.97;3.38;;;;;;;;;;5033745;28;20206;-78
2022/04/10 06:01:25;;;;;;;6.43;3.50;;;;;;;;;;5034479;28;20198;-78
2022/04/10 06:03:52;;;;;;;3.35;2.13;;;;;;;;;;5035311;28;20224;-78
2022/04/10 06:06:20;;;;;;;5.03;2.75;;;;;;;;;;5035124;28;20296;-80
2022/04/10 06:08:47;;;;;;;5.93;2.60;;;;;;;;;;5035709;28;20206;-78
2022/04/10 06:11:14;;;;;;;4.53;2.40;;;;;;;;;;5035091;28;20721;-77
2022/04/10 06:13:41;;;;;;;6.05;2.50;;;;;;;;;;5034537;28;20209;-79
2022/04/10 06:16:10;;;;;;;3.13;2.40;;;;;;;;;;5034535;28;20233;-78
2022/04/10 06:18:37;;;;;;;4.15;2.28;;;;;;;;;;5034384;28;20202;-79
2022/04/10 06:21:05;;;;;;;8.80;3.03;;;;;;;;;;5035696;28;20198;-80
2022/04/10 06:23:32;;;;;;;5.38;3.03;;;;;;;;;;5034956;28;20670;-79
2022/04/10 06:25:59;;;;;;;2.72;2.28;;;;;;;;;;5035515;28;20222;-80
2022/04/10 06:28:26;;;;;;;2.45;2.25;;;;;;;;;;5034132;28;20209;-80
2022/04/10 06:30:54;;;;;;;5.82;1.98;;;;;;;;;;5034596;28;20265;-79
2022/04/10 06:33:22;;;;;;;4.70;2.88;;;;;;;;;;5033483;28;20206;-79
2022/04/10 06:35:49;;;;;;;8.45;3.30;;;;;;;;;;5033811;28;20234;-79
2022/04/10 06:38:17;;;;;;;3.63;2.20;;;;;;;;;;5034164;28;20215;-79
2022/04/10 06:40:45;;;;;;;4.75;3.35;;;;;;;;;;5034059;28;20229;-80
2022/04/10 06:43:13;;;;;;;3.45;2.45;;;;;;;;;;5033792;28;20202;-80
2022/04/10 06:45:40;;;;;;;4.57;2.13;;;;;;;;;;5022978;28;20218;-80
2022/04/10 06:48:08;;;;;;;6.13;2.60;;;;;;;;;;5014878;28;20628;-80
2022/04/10 06:50:36;;;;;;;5.53;2.75;;;;;;;;;;5014561;28;20203;-80
2022/04/10 06:53:04;;;;;;;4.95;2.83;;;;;;;;;;5013919;28;20223;-80
2022/04/10 06:55:31;;;;;;;5.18;2.80;;;;;;;;;;5014503;28;20238;-78
2022/04/10 06:57:59;;;;;;;4.85;2.83;;;;;;;;;;5014502;28;20230;-80
2022/04/10 07:00:27;;;;;;;3.15;2.05;;;;;;;;;;5014570;28;20203;-79
2022/04/10 07:02:55;;;;;;;6.90;3.78;;;;;;;;;;5013978;28;20286;-81
2022/04/10 07:05:22;;;;;;;12.52;3.83;;;;;;;;;;5013936;28;20254;-79
2022/04/10 07:07:51;;;;;;;5.43;2.75;;;;;;;;;;5031984;28;20265;-79
2022/04/10 07:10:18;;;;;;;7.10;3.17;;;;;;;;;;5032158;28;20217;-80
2022/04/10 07:12:45;;;;;;;6.72;2.38;;;;;;;;;;5033091;28;20800;-79
2022/04/10 07:15:13;;;;;;;4.40;3.28;;;;;;;;;;5033504;28;20222;-80
2022/04/10 07:17:40;;;;;;;2.85;1.90;;;;;;;;;;5034307;28;20260;-81
2022/04/10 07:20:09;;;;;;;7.40;3.25;;;;;;;;;;5033690;28;20205;-80
2022/04/10 07:25:23;;;;;;;4.53;2.40;;;;;;;;;;5036282;28;20229;-80
2022/04/10 07:27:50;;;;;;;5.80;2.47;;;;;;;;;;5035156;28;20206;-81
2022/04/10 07:30:18;;;;;;;4.25;1.80;;;;;;;;;;5034811;28;20206;-80
2022/04/10 07:32:52;;;;;;;4.88;2.40;;;;;;;;;;5033428;28;20218;-80
2022/04/10 07:35:20;;;;;;;3.38;2.08;;;;;;;;;;5034163;28;20308;-82
2022/04/10 07:37:47;;;;;;;3.03;2.00;;;;;;;;;;5038509;28;20686;-82
2022/04/10 07:40:14;;;;;;;4.32;3.75;;;;;;;;;;5039703;28;20206;-82
2022/04/10 07:42:44;;;;;;;4.65;2.00;;;;;;;;;;5038519;28;20383;-81
2022/04/10 07:47:25;;;;;;;3.53;1.90;;;;;;;;;;5039729;28;20222;-81
2022/04/10 07:47:58;;;;;;;5.57;2.28;;;;;;;;;;5039844;28;20264;-81
2022/04/10 07:50:26;;;;;;;5.22;2.65;;;;;;;;;;5039607;28;20656;-83
2022/04/10 07:52:54;;;;;;;6.25;2.15;;;;;;;;;;5038658;28;20218;-81
2022/04/10 07:55:21;;;;;;;4.63;2.22;;;;;;;;;;5040434;28;20734;-81
2022/04/10 07:57:51;;;;;;;3.42;1.88;;;;;;;;;;5040207;28;20207;-81
2022/04/10 08:00:19;;;;;;;5.78;2.40;;;;;;;;;;5042128;28;20233;-81
2022/04/10 08:02:47;;;;;;;5.07;2.15;;;;;;;;;;5039944;28;20203;-82
2022/04/10 08:05:14;;;;;;;5.53;2.42;;;;;;;;;;5042553;28;20233;-81
2022/04/10 08:07:42;;;;;;;7.15;1.95;;;;;;;;;;5043899;28;20210;-82
2022/04/10 08:10:10;;;;;;;6.97;2.05;;;;;;;;;;5043013;28;20214;-81
2022/04/10 08:12:37;;;;;;;2.78;1.73;;;;;;;;;;5042359;28;20224;-80
2022/04/10 08:15:07;;;;;;;3.60;2.08;;;;;;;;;;5042294;28;20229;-81
2022/04/10 08:17:35;;;;;;;7.10;2.58;;;;;;;;;;5041603;28;20713;-82
2022/04/10 08:20:04;;;;;;;3.55;1.80;;;;;;;;;;5042285;28;20682;-82
2022/04/10 08:22:32;;;;;;;2.58;1.60;;;;;;;;;;5039375;28;20202;-81
2022/04/10 08:25:02;;;;;;;4.43;2.20;;;;;;;;;;5021906;28;20222;-82
2022/04/10 08:27:30;;;;;;;3.17;2.35;;;;;;;;;;5019656;28;20234;-82
2022/04/10 08:29:57;;;;;;;2.58;1.95;;;;;;;;;;5020503;28;20210;-82
2022/04/10 08:32:26;;;;;;;5.22;1.80;;;;;;;;;;5019605;28;20648;-83
2022/04/10 08:34:53;;;;;;;12.75;2.53;;;;;;;;;;5019805;28;20223;-83
2022/04/10 08:37:20;;;;;;;5.07;1.70;;;;;;;;;;5034618;28;20655;-82
2022/04/10 08:39:48;;;;;;;4.90;2.65;;;;;;;;;;5039068;28;20631;-84
2022/04/10 08:42:15;;;;;;;4.93;3.30;;;;;;;;;;5038934;28;20202;-81
2022/04/10 08:44:42;;;;;;;2.88;1.98;;;;;;;;;;5039845;28;20718;-83
2022/04/10 08:47:10;;;;;;;3.65;2.03;;;;;;;;;;5041172;28;20206;-82
2022/04/10 08:49:40;;;;;;;5.43;2.03;;;;;;;;;;5039423;28;20599;-82
2022/04/10 08:52:08;;;;;;;5.13;1.63;;;;;;;;;;5039499;28;20425;-83
2022/04/10 08:57:06;;;;;;;4.60;1.77;;;;;;;;;;5073836;28;20271;-81
2022/04/10 08:59:33;;;;;;;1.75;1.30;;;;;;;;;;5071112;28;20205;-82
2022/04/10 09:02:00;;;;;;;1.70;1.17;;;;;;;;;;5074879;28;20202;-82
2022/04/10 09:04:28;;;;;;;4.05;1.60;;;;;;;;;;5074265;28;20214;-82
2022/04/10 09:07:02;;;;;;;5.57;1.50;;;;;;;;;;5068011;28;20252;-82
2022/04/10 09:09:31;;;;;;;4.50;2.00;;;;;;;;;;5062586;28;20599;-81
2022/04/10 09:11:59;;;;;;;4.40;2.15;;;;;;;;;;5054322;28;20240;-81
2022/04/10 09:14:29;;;;;;;1.60;1.25;;;;;;;;;;5055129;28;20218;-82
2022/04/10 09:17:17;;;;;;;3.55;1.33;;;;;;;;;;5055442;28;20190;-83
2022/04/10 09:19:46;;;;;;;2.17;1.63;;;;;;;;;;5052156;28;20198;-83
2022/04/10 09:22:30;;;;;;;3.22;1.95;;;;;;;;;;5056449;28;20202;-83
2022/04/10 09:25:07;;;;;;;4.30;1.85;;;;;;;;;;5054395;28;20283;-84
2022/04/10 09:27:36;;;;;;;2.50;1.60;;;;;;;;;;5055519;28;20205;-83
2022/04/10 09:30:05;;;;;;;2.45;1.60;;;;;;;;;;5053522;28;20225;-83
2022/04/10 09:32:42;;;;;;;3.53;1.50;;;;;;;;;;5046328;28;20205;-84
2022/04/10 09:35:11;;;;;;;3.28;1.80;;;;;;;;;;5049038;28;20226;-86
2022/04/10 09:37:49;;;;;;;3.58;1.75;;;;;;;;;;5063350;28;20223;-84
2022/04/10 09:40:38;;;;;;;3.33;1.75;;;;;;;;;;5068469;28;20197;-83
2022/04/10 09:43:07;;;;;;;1.90;1.80;;;;;;;;;;5070997;28;20198;-82
2022/04/10 09:45:38;;;;;;;2.38;1.50;;;;;;;;;;5069422;28;20210;-80
2022/04/10 09:48:22;;;;;;;5.97;2.13;;;;;;;;;;5069695;28;20209;-85
2022/04/10 09:50:52;;;;;;;1.63;0.90;;;;;;;;;;5070857;28;20209;-85
2022/04/10 09:53:21;;;;;;;2.05;1.20;;;;;;;;;;5072698;28;20282;-84
2022/04/10 09:55:55;;;;;;;2.55;1.38;;;;;;;;;;5071486;28;20240;-85
2022/04/10 09:58:23;;;;;;;2.65;1.40;;;;;;;;;;5075398;28;20268;-84
2022/04/10 10:00:53;;;;;;;1.75;1.45;;;;;;;;;;5073421;28;20202;-81
2022/04/10 10:03:22;;;;;;;2.35;1.85;;;;;;;;;;5075017;28;20696;-84
2022/04/10 10:05:50;;;;;;;3.15;1.52;;;;;;;;;;5074853;28;20225;-83
2022/04/10 10:08:20;;;;;;;4.50;1.33;;;;;;;;;;5075682;28;20209;-85
2022/04/10 10:10:48;;;;;;;2.42;1.60;;;;;;;;;;5070648;28;20194;-83
2022/04/10 10:13:16;;;;;;;1.55;1.20;;;;;;;;;;5072784;28;20225;-84
2022/04/10 10:15:45;;;;;;;2.53;1.38;;;;;;;;;;5069626;28;20241;-84
2022/04/10 10:18:14;;;;;;;3.85;1.50;;;;;;;;;;5072769;28;20210;-86
2022/04/10 10:20:42;;;;;;;4.78;2.17;;;;;;;;;;5075010;28;20216;-84
2022/04/10 10:23:11;;;;;;;1.20;1.10;;;;;;;;;;5071564;28;20232;-82
2022/04/10 10:25:46;;;;;;;1.67;1.45;;;;;;;;;;5066350;28;20225;-82
2022/04/10 10:28:34;;;;;;;2.17;1.65;;;;;;;;;;5065109;28;20201;-84
2022/04/10 10:31:31;;;;;;;3.55;1.67;;;;;;;;;;5067885;28;20206;-84
2022/04/10 10:34:02;;;;;;;1.70;1.40;;;;;;;;;;5063276;28;20232;-83
2022/04/10 10:36:29;;;;;;;1.30;1.20;;;;;;;;;;5064439;28;20209;-83
2022/04/10 10:38:58;;;;;;;8.65;1.90;;;;;;;;;;5062952;28;20205;-83
2022/04/10 10:41:35;;;;;;;4.82;2.47;;;;;;;;;;5063082;28;20212;-84
2022/04/10 10:44:18;;;;;;;2.03;1.17;;;;;;;;;;5063193;28;20208;-83
2022/04/10 10:47:00;;;;;;;1.77;1.27;;;;;;;;;;5065083;28;20265;-83
2022/04/10 10:49:30;;;;;;;3.83;1.40;;;;;;;;;;5063893;28;20212;-82
2022/04/10 10:51:58;;;;;;;2.15;1.55;;;;;;;;;;5061227;28;20261;-81
2022/04/10 10:54:34;;;;;;;1.83;1.27;;;;;;;;;;5059268;28;20221;-82
2022/04/10 10:57:30;;;;;;;3.33;1.55;;;;;;;;;;5059963;28;20237;-82
2022/04/10 11:00:20;;;;;;;1.95;1.85;;;;;;;;;;5060771;28;20233;-83
2022/04/10 11:02:50;;;;;;;2.90;1.60;;;;;;;;;;5060113;28;20249;-82
2022/04/10 11:05:35;;;;;;;2.63;1.42;;;;;;;;;;5059086;28;20221;-81
2022/04/10 11:08:05;;;;;;;2.67;1.60;;;;;;;;;;5041564;28;20206;-82
2022/04/10 11:10:36;;;;;;;3.70;1.85;;;;;;;;;;5043373;28;20210;-83
2022/04/10 11:13:06;;;;;;;5.32;1.55;;;;;;;;;;5046359;28;20273;-83
2022/04/10 11:15:36;;;;;;;2.90;2.28;;;;;;;;;;5047867;28;20226;-83
2022/04/10 11:18:31;;;;;;;2.47;1.33;;;;;;;;;;5047507;28;20202;-83
2022/04/10 11:21:06;;;;;;;1.42;1.33;;;;;;;;;;5048050;28;20206;-82
2022/04/10 11:23:39;;;;;;;1.95;1.30;;;;;;;;;;5045955;28;20213;-83
2022/04/10 11:26:13;;;;;;;1.52;1.42;;;;;;;;;;5047928;28;20268;-82
2022/04/10 11:29:04;;;;;;;2.45;1.88;;;;;;;;;;5046322;28;20206;-82
2022/04/10 11:31:36;;;;;;;1.55;1.35;;;;;;;;;;5045850;28;20202;-82
2022/04/10 11:34:11;;;;;;;2.95;1.67;;;;;;;;;;5045063;28;20234;-81
2022/04/10 11:36:52;;;;;;;1.30;1.20;;;;;;;;;;5056657;28;20206;-82
2022/04/10 11:39:25;;;;;;;4.45;1.95;;;;;;;;;;5062905;28;20204;-82
2022/04/10 11:41:53;;;;;;;1.52;1.42;;;;;;;;;;5064364;28;20198;-82
2022/04/10 11:44:22;;;;;;;2.10;1.33;;;;;;;;;;5065046;28;20222;-82
2022/04/10 11:46:50;;;;;;;4.47;2.22;;;;;;;;;;5066478;28;20198;-82
2022/04/10 11:49:19;;;;;;;2.97;1.58;;;;;;;;;;5067565;28;20202;-81
2022/04/10 11:51:55;;;;;;;2.13;1.30;;;;;;;;;;5066227;28;20273;-84
2022/04/10 11:54:31;;;;;;;2.88;1.73;;;;;;;;;;5066430;28;20229;-83
2022/04/10 11:57:00;;;;;;;2.33;1.38;;;;;;;;;;5063872;28;20217;-83
2022/04/10 11:59:35;;;;;;;2.40;1.50;;;;;;;;;;5069773;28;20205;-82
2022/04/10 12:02:04;;;;;;;2.35;1.48;;;;;;;;;;5071151;28;20185;-81
2022/04/10 12:04:35;;;;;;;1.80;1.40;;;;;;;;;;5070640;28;20531;-83
2022/04/10 12:07:15;;;;;;;2.70;2.15;;;;;;;;;;5073037;28;20217;-82
2022/04/10 12:09:44;;;;;;;3.00;2.65;;;;;;;;;;5072813;28;20233;-82
2022/04/10 12:12:12;;;;;;;1.75;1.65;;;;;;;;;;5070191;28;20220;-80
2022/04/10 12:14:41;;;;;;;2.35;1.75;;;;;;;;;;5062251;28;20276;-82
2022/04/10 12:17:12;;;;;;;1.65;1.50;;;;;;;;;;5062048;28;20216;-83
2022/04/10 12:19:39;;;;;;;1.75;1.50;;;;;;;;;;5060917;28;20201;-84
2022/04/10 12:22:09;;;;;;;1.65;1.55;;;;;;;;;;5059736;28;20224;-83
2022/04/10 12:24:37;;;;;;;2.42;2.22;;;;;;;;;;5060843;28;20226;-84
2022/04/10 12:27:06;;;;;;;2.35;1.58;;;;;;;;;;5061666;28;20232;-82
2022/04/10 12:29:36;;;;;;;1.70;1.60;;;;;;;;;;5064346;28;20202;-85
2022/04/10 12:32:06;;;;;;;2.28;1.50;;;;;;;;;;5061184;28;20272;-84
2022/04/10 12:34:34;;;;;;;1.10;1.10;;;;;;;;;;5061662;28;20236;-84
2022/04/10 12:37:09;;;;;;;3.70;1.67;;;;;;;;;;5062862;28;20208;-84
2022/04/10 12:39:37;;;;;;;3.70;2.17;;;;;;;;;;5062528;28;20208;-84
2022/04/10 12:42:08;;;;;;;1.70;1.60;;;;;;;;;;5059470;28;20212;-83
2022/04/10 12:44:37;;;;;;;1.50;1.40;;;;;;;;;;5061782;28;20221;-82
2022/04/10 12:47:06;;;;;;;1.48;1.38;;;;;;;;;;5061428;28;20202;-83
2022/04/10 12:49:35;;;;;;;1.33;1.23;;;;;;;;;;5062589;28;20201;-84
2022/04/10 12:52:05;;;;;;;2.03;1.15;;;;;;;;;;5060217;28;20201;-83
2022/04/10 12:54:38;;;;;;;1.75;1.17;;;;;;;;;;5059955;28;20229;-83
2022/04/10 12:57:06;;;;;;;1.83;1.30;;;;;;;;;;5062996;28;20225;-82
2022/04/10 12:59:41;;;;;;;2.65;1.17;;;;;;;;;;5063680;28;20263;-83
2022/04/10 13:02:22;;;;;;;1.88;1.10;;;;;;;;;;5062554;28;20201;-84
2022/04/10 13:04:59;;;;;;;2.60;1.58;;;;;;;;;;5062289;28;20225;-82
2022/04/10 13:07:28;;;;;;;3.03;1.33;;;;;;;;;;5064676;28;20209;-85
2022/04/10 13:10:07;;;;;;;1.40;1.23;;;;;;;;;;5062199;28;20233;-84
2022/04/10 13:12:37;;;;;;;1.05;1.00;;;;;;;;;;5063653;28;20236;-84
2022/04/10 13:15:06;;;;;;;1.30;1.20;;;;;;;;;;5047259;28;20252;-84
2022/04/10 13:17:36;;;;;;;1.35;1.25;;;;;;;;;;5039459;28;20199;-84
2022/04/10 13:20:06;;;;;;;1.40;1.30;;;;;;;;;;5039268;28;20198;-84
2022/04/10 13:22:34;;;;;;;1.20;1.15;;;;;;;;;;5040783;28;20195;-83
2022/04/10 13:25:01;;;;;;;2.85;1.67;;;;;;;;;;5060813;28;20232;-84
2022/04/10 13:27:29;;;;;;;2.25;1.40;;;;;;;;;;5058862;28;20205;-84
2022/04/10 13:29:57;;;;;;;1.55;1.40;;;;;;;;;;5059007;28;20202;-82
2022/04/10 13:32:25;;;;;;;1.13;1.10;;;;;;;;;;5052605;28;20205;-84
2022/04/10 13:34:54;;;;;;;1.40;1.08;;;;;;;;;;5038419;28;20221;-83
2022/04/10 13:37:22;;;;;;;4.40;1.55;;;;;;;;;;5054301;28;20204;-83
2022/04/10 13:39:50;;;;;;;1.02;1.02;;;;;;;;;;5064608;28;20244;-83
2022/04/10 13:42:17;;;;;;;2.67;1.33;;;;;;;;;;5064886;28;20194;-83
2022/04/10 13:44:45;;;;;;;2.20;2.00;;;;;;;;;;5065562;28;20256;-84
2022/04/10 13:47:12;;;;;;;2.08;1.40;;;;;;;;;;5064551;28;20198;-83
2022/04/10 13:49:40;;;;;;;3.13;1.10;;;;;;;;;;5064101;28;20202;-83
2022/04/10 13:52:09;;;;;;;2.78;1.52;;;;;;;;;;5064356;28;20235;-84
2022/04/10 13:54:37;;;;;;;1.25;1.15;;;;;;;;;;5064341;28;20217;-83
2022/04/10 13:57:05;;;;;;;2.88;1.20;;;;;;;;;;5066420;28;20221;-83
2022/04/10 13:59:32;;;;;;;2.58;1.55;;;;;;;;;;5066354;28;20209;-83
2022/04/10 14:02:00;;;;;;;1.88;1.13;;;;;;;;;;5064399;28;20198;-84
2022/04/10 14:04:27;;;;;;;1.42;1.35;;;;;;;;;;5063923;28;20217;-85
2022/04/10 14:06:55;;;;;;;3.35;1.55;;;;;;;;;;5063964;28;20217;-82
2022/04/10 14:09:24;;;;;;;2.15;1.30;;;;;;;;;;5059607;28;20228;-80
2022/04/10 14:11:51;;;;;;;2.25;1.92;;;;;;;;;;5060331;28;20252;-82
2022/04/10 14:14:18;;;;;;;3.95;1.50;;;;;;;;;;5042536;28;20213;-83
2022/04/10 14:16:46;;;;;;;1.40;1.30;;;;;;;;;;5042310;28;20218;-83
2022/04/10 14:19:13;;;;;;;1.90;1.67;;;;;;;;;;5054189;28;20194;-81
2022/04/10 14:21:40;;;;;;;1.45;1.33;;;;;;;;;;5043625;28;20260;-82
2022/04/10 14:24:08;;;;;;;1.73;1.33;;;;;;;;;;5038370;28;20202;-83
2022/04/10 14:26:37;;;;;;;3.70;1.38;;;;;;;;;;5042679;28;20204;-81
2022/04/10 14:29:04;;;;;;;0.90;0.90;;;;;;;;;;5039261;28;20294;-84
2022/04/10 14:31:31;;;;;;;1.70;1.40;;;;;;;;;;5040516;28;20258;-80
2022/04/10 14:33:59;;;;;;;1.40;1.30;;;;;;;;;;5061892;28;20216;-82
2022/04/10 14:36:26;;;;;;;1.95;1.52;;;;;;;;;;5061597;28;20222;-82
2022/04/10 14:38:54;;;;;;;1.60;1.50;;;;;;;;;;5062564;28;20213;-85
2022/04/10 14:41:21;;;;;;;1.55;1.23;;;;;;;;;;5063146;28;20198;-83
2022/04/10 14:43:50;;;;;;;1.42;1.30;;;;;;;;;;5062802;28;20197;-83
2022/04/10 14:46:18;;;;;;;1.55;1.45;;;;;;;;;;5064590;28;20311;-83
2022/04/10 14:48:46;;;;;;;1.25;1.20;;;;;;;;;;5069420;28;20292;-83
2022/04/10 14:51:13;;;;;;;1.40;1.30;;;;;;;;;;5073161;28;20194;-82
2022/04/10 14:53:40;;;;;;;1.42;1.33;;;;;;;;;;5076932;28;20201;-83
2022/04/10 14:56:08;;;;;;;1.60;1.30;;;;;;;;;;5076436;28;20221;-82
2022/04/10 14:58:35;;;;;;;2.63;1.30;;;;;;;;;;5074829;28;20209;-83
2022/04/10 15:01:04;;;;;;;2.40;1.67;;;;;;;;;;5075680;28;20201;-84
2022/04/10 15:03:32;;;;;;;2.20;1.20;;;;;;;;;;5073290;28;20201;-82